Terminal Aerodrome Forecast
Issued by NWS

Home | Current Version | Previous Version | Text Only | Print | Product List | Glossary On
Versions: 1 2 3 4 5 6 7 8 9 10 11 12 13 14 15 16
956
FTUS44 KCRP 281735
TAFLRD
TAF
KLRD 281735Z 2818/2918 06008KT P6SM SCT040
     FM290100 13008KT P6SM SCT050
     FM290400 15008KT P6SM SCT025
      TEMPO 2910/2912 BKN025
     FM291600 16010KT P6SM SCT040=

USA.gov is the U.S. government's official web portal to all federal, state and local government web resources and services.